| time (UTC) | temp C | wind direction | speed KPH | gust KPH | rain 1hr cm | rain 24hr cm | rain mn cm | humidity % | barometer mb |
| 20260503181543 | 22 | 122 | 6.4 | 12.9 | 0.00 | 0.00 | 0.00 | 30 | 1014.4 |
| 20260503181044 | 22 | 146 | 6.4 | 12.9 | 0.00 | 0.00 | 0.00 | 31 | 1014.4 |
| 20260503180543 | 22 | 215 | 3.2 | 12.9 | 0.00 | 0.00 | 0.00 | 33 | 1014.5 |
| 20260503180043 | 22 | 100 | 4.8 | 9.7 | 0.00 | 0.00 | 0.00 | 33 | 1014.6 |
| 20260503175604 | 22 | 99 | 6.4 | 9.7 | 0.00 | 0.00 | 0.00 | 34 | 1014.7 |
| 20260503175043 | 21 | 120 | 4.8 | 11.3 | 0.00 | 0.00 | 0.00 | 34 | 1014.8 |
| 20260503174543 | 21 | 114 | 3.2 | 11.3 | 0.00 | 0.00 | 0.00 | 35 | 1014.8 |
| 20260503174043 | 21 | 98 | 6.4 | 12.9 | 0.00 | 0.00 | 0.00 | 35 | 1015.1 |
| 20260503173543 | 20 | 112 | 6.4 | 12.9 | 0.00 | 0.00 | 0.00 | 35 | 1014.9 |
| 20260503173044 | 20 | 117 | 6.4 | 16.1 | 0.00 | 0.00 | 0.00 | 36 | 1015.2 |
| 20260503172543 | 20 | 105 | 8.0 | 16.1 | 0.00 | 0.00 | 0.00 | 37 | 1015.1 |
| 20260503172043 | 20 | 110 | 4.8 | 12.9 | 0.00 | 0.00 | 0.00 | 37 | 1015.1 |
| 20260503171543 | 20 | 111 | 6.4 | 11.3 | 0.00 | 0.00 | 0.00 | 39 | 1015.1 |
| 20260503171044 | 20 | 114 | 4.8 | 11.3 | 0.00 | 0.00 | 0.00 | 40 | 1015.4 |
| 20260503170543 | 19 | 127 | 1.6 | 9.7 | 0.00 | 0.00 | 0.00 | 40 | 1015.3 |
| 20260503150544 | 15 | 117 | 3.2 | 11.3 | 0.00 | 0.00 | 0.00 | 46 | 1016.9 |
| 20260503131043 | 12 | 314 | 1.6 | 6.4 | 0.00 | 0.00 | 0.00 | 49 | 1016.9 |
| 20260503130543 | 12 | 323 | 3.2 | 4.8 | 0.00 | 0.00 | 0.00 | 50 | 1016.8 |
| 20260503110543 | 13 | 321 | 1.6 | 3.2 | 0.00 | 0.00 | 0.00 | 43 | 1016.8 |
| 20260503081624 | 15 | 325 | 3.2 | 4.8 | 0.00 | 0.00 | 0.00 | 41 | 1016.9 |
| 20260503081103 | 15 | 335 | 3.2 | 4.8 | 0.00 | 0.00 | 0.00 | 42 | 1016.8 |
| 20260503080544 | 15 | 308 | 1.6 | 6.4 | 0.00 | 0.00 | 0.00 | 41 | 1016.9 |
| 20260503080103 | 15 | 332 | 1.6 | 6.4 | 0.00 | 0.00 | 0.00 | 41 | 1017.1 |
| 20260503072543 | 16 | 4 | 1.6 | 9.7 | 0.00 | 0.00 | 0.00 | 40 | 1016.9 |
| 20260503072043 | 16 | 56 | 3.2 | 6.4 | 0.00 | 0.00 | 0.00 | 40 | 1016.8 |
| 20260503071543 | 16 | 74 | 4.8 | 6.4 | 0.00 | 0.00 | 0.00 | 40 | 1017.1 |
| 20260503071043 | 16 | 34 | 1.6 | 6.4 | 0.00 | 0.00 | 0.00 | 40 | 1017.0 |
| 20260503070543 | 16 | 57 | 4.8 | 6.4 | 0.00 | 0.00 | 0.00 | 39 | 1017.1 |
| 20260503055103 | 17 | 76 | 3.2 | 6.4 | 0.00 | 0.00 | 0.00 | 38 | 1016.5 |
| 20260503054543 | 17 | 53 | 3.2 | 6.4 | 0.00 | 0.00 | 0.00 | 38 | 1016.5 |
| 20260503054043 | 17 | 328 | 3.2 | 4.8 | 0.00 | 0.00 | 0.00 | 38 | 1016.4 |
| 20260503053543 | 17 | 319 | 3.2 | 6.4 | 0.00 | 0.00 | 0.00 | 38 | 1016.4 |
| 20260503053042 | 17 | 342 | 1.6 | 6.4 | 0.00 | 0.00 | 0.00 | 38 | 1016.5 |
| 20260503052543 | 17 | 314 | 1.6 | 4.8 | 0.00 | 0.00 | 0.00 | 38 | 1016.3 |
| 20260503052103 | 17 | 340 | 1.6 | 4.8 | 0.00 | 0.00 | 0.00 | 37 | 1016.3 |
| 20260503051603 | 17 | 326 | 3.2 | 4.8 | 0.00 | 0.00 | 0.00 | 38 | 1016.4 |
| 20260503051043 | 17 | 0 | 1.6 | 4.8 | 0.00 | 0.00 | 0.00 | 38 | 1016.2 |
| 20260503050543 | 17 | 28 | 1.6 | 9.7 | 0.00 | 0.00 | 0.00 | 38 | 1016.3 |
| 20260503050042 | 18 | 295 | 3.2 | 9.7 | 0.00 | 0.00 | 0.00 | 36 | 1016.2 |
| 20260503045543 | 17 | 347 | 1.6 | 4.8 | 0.00 | 0.00 | 0.00 | 37 | 1016.0 |
| 20260503045103 | 18 | 64 | 3.2 | 6.4 | 0.00 | 0.00 | 0.00 | 36 | 1016.0 |
| 20260503044542 | 18 | 72 | 3.2 | 8.0 | 0.00 | 0.00 | 0.00 | 36 | 1015.9 |
| 20260503044043 | 18 | 48 | 3.2 | 8.0 | 0.00 | 0.00 | 0.00 | 34 | 1015.9 |
| 20260503043603 | 19 | 59 | 1.6 | 4.8 | 0.00 | 0.00 | 0.00 | 34 | 1015.7 |
| 20260503043042 | 19 | 270 | 1.6 | 11.3 | 0.00 | 0.00 | 0.00 | 33 | 1015.7 |
| 20260503042542 | 19 | 29 | 1.6 | 12.9 | 0.00 | 0.00 | 0.00 | 33 | 1015.6 |
| 20260503042103 | 20 | 65 | 6.4 | 14.5 | 0.00 | 0.00 | 0.00 | 33 | 1015.4 |
| 20260503041543 | 19 | 68 | 6.4 | 14.5 | 0.00 | 0.00 | 0.00 | 33 | 1015.6 |
| 20260503041043 | 19 | 30 | 3.2 | 6.4 | 0.00 | 0.00 | 0.00 | 33 | 1015.6 |
| 20260503040543 | 20 | 6 | 1.6 | 9.7 | 0.00 | 0.00 | 0.00 | 34 | 1015.3 |
| 20260503040043 | 19 | 9 | 3.2 | 9.7 | 0.00 | 0.00 | 0.00 | 34 | 1015.3 |
| 20260503035542 | 19 | 2 | 1.6 | 11.3 | 0.00 | 0.00 | 0.00 | 35 | 1015.3 |
| 20260503035043 | 20 | 46 | 1.6 | 11.3 | 0.00 | 0.00 | 0.00 | 35 | 1015.3 |
| 20260503034542 | 20 | 43 | 3.2 | 8.0 | 0.00 | 0.00 | 0.00 | 36 | 1015.3 |
| 20260503034043 | 19 | 64 | 1.6 | 4.8 | 0.00 | 0.00 | 0.00 | 37 | 1015.2 |
| 20260503033543 | 19 | 308 | 3.2 | 4.8 | 0.00 | 0.00 | 0.00 | 38 | 1015.1 |
| 20260503033042 | 19 | 346 | 3.2 | 4.8 | 0.00 | 0.00 | 0.00 | 38 | 1015.0 |
| 20260503032542 | 19 | 337 | 3.2 | 4.8 | 0.00 | 0.00 | 0.00 | 38 | 1014.9 |
| 20260503032043 | 20 | 345 | 3.2 | 4.8 | 0.00 | 0.00 | 0.00 | 38 | 1014.9 |
| 20260503031542 | 20 | 323 | 1.6 | 4.8 | 0.00 | 0.00 | 0.00 | 39 | 1014.8 |
| 20260503031042 | 20 | 5 | 3.2 | 4.8 | 0.00 | 0.00 | 0.00 | 38 | 1014.7 |
| 20260503030543 | 20 | 358 | 3.2 | 4.8 | 0.00 | 0.00 | 0.00 | 38 | 1014.6 |
| 20260503030042 | 20 | 353 | 3.2 | 4.8 | 0.00 | 0.00 | 0.00 | 37 | 1014.6 |
| 20260503025543 | 20 | 352 | 1.6 | 3.2 | 0.00 | 0.00 | 0.00 | 37 | 1014.6 |
| 20260503025043 | 20 | 354 | 1.6 | 3.2 | 0.00 | 0.00 | 0.00 | 36 | 1014.5 |
| 20260503024542 | 20 | 355 | 1.6 | 4.8 | 0.00 | 0.00 | 0.00 | 36 | 1014.5 |
| 20260503024103 | 20 | 352 | 3.2 | 4.8 | 0.00 | 0.00 | 0.00 | 36 | 1014.5 |
| 20260503023603 | 20 | 351 | 3.2 | 3.2 | 0.00 | 0.00 | 0.00 | 36 | 1014.4 |
| 20260503023042 | 21 | 355 | 3.2 | 3.2 | 0.00 | 0.00 | 0.00 | 35 | 1014.5 |
| 20260503022603 | 21 | 355 | 3.2 | 3.2 | 0.00 | 0.00 | 0.00 | 35 | 1014.4 |
| 20260503022042 | 21 | 340 | 1.6 | 3.2 | 0.00 | 0.00 | 0.00 | 35 | 1014.3 |
| 20260503021543 | 21 | 349 | 3.2 | 4.8 | 0.00 | 0.00 | 0.00 | 35 | 1014.1 |
| 20260503021043 | 21 | 354 | 3.2 | 4.8 | 0.00 | 0.00 | 0.00 | 34 | 1014.3 |
| 20260503020543 | 21 | 355 | 1.6 | 3.2 | 0.00 | 0.00 | 0.00 | 34 | 1014.3 |
| 20260503020043 | 21 | 233 | 1.6 | 3.2 | 0.00 | 0.00 | 0.00 | 34 | 1014.5 |
| 20260503015543 | 21 | 0 | 1.6 | 4.8 | 0.00 | 0.00 | 0.00 | 33 | 1014.4 |
| 20260503015043 | 22 | 308 | 1.6 | 4.8 | 0.00 | 0.00 | 0.00 | 33 | 1014.4 |
| 20260503014543 | 21 | 283 | 1.6 | 4.8 | 0.00 | 0.00 | 0.00 | 33 | 1014.4 |
| 20260503014042 | 22 | 203 | 1.6 | 4.8 | 0.00 | 0.00 | 0.00 | 33 | 1014.5 |
| 20260503013543 | 22 | 169 | 1.6 | 6.4 | 0.00 | 0.00 | 0.00 | 33 | 1014.5 |
| 20260503013043 | 22 | 268 | 3.2 | 6.4 | 0.00 | 0.00 | 0.00 | 32 | 1014.6 |
| 20260503012543 | 22 | 267 | 3.2 | 6.4 | 0.00 | 0.00 | 0.00 | 33 | 1014.7 |
| 20260503012044 | 22 | 248 | 3.2 | 8.0 | 0.00 | 0.00 | 0.00 | 33 | 1014.7 |
| 20260503011543 | 22 | 231 | 4.8 | 8.0 | 0.00 | 0.00 | 0.00 | 33 | 1014.6 |
| 20260503011043 | 22 | 236 | 4.8 | 8.0 | 0.00 | 0.00 | 0.00 | 33 | 1014.6 |
| 20260503010543 | 22 | 245 | 3.2 | 9.7 | 0.00 | 0.00 | 0.00 | 34 | 1014.6 |
| 20260503010043 | 22 | 237 | 4.8 | 9.7 | 0.00 | 0.00 | 0.00 | 34 | 1014.6 |
| 20260503005542 | 22 | 225 | 4.8 | 9.7 | 0.00 | 0.00 | 0.00 | 34 | 1014.6 |
| 20260503005042 | 22 | 276 | 6.4 | 11.3 | 0.00 | 0.00 | 0.00 | 34 | 1014.6 |
| 20260503004543 | 22 | 245 | 4.8 | 11.3 | 0.00 | 0.00 | 0.00 | 33 | 1014.7 |
| 20260503004043 | 22 | 234 | 4.8 | 11.3 | 0.00 | 0.00 | 0.00 | 33 | 1014.8 |
| 20260503003604 | 22 | 231 | 4.8 | 11.3 | 0.00 | 0.00 | 0.00 | 33 | 1014.8 |
| 20260503003043 | 22 | 254 | 4.8 | 11.3 | 0.00 | 0.00 | 0.00 | 33 | 1014.7 |
| 20260503002543 | 22 | 234 | 4.8 | 11.3 | 0.00 | 0.00 | 0.00 | 33 | 1014.9 |
| 20260503002043 | 22 | 242 | 6.4 | 9.7 | 0.00 | 0.00 | 0.00 | 33 | 1014.8 |
| 20260503001604 | 22 | 245 | 4.8 | 14.5 | 0.00 | 0.00 | 0.00 | 33 | 1014.8 |
| 20260503001103 | 22 | 246 | 6.4 | 14.5 | 0.00 | 0.00 | 0.00 | 33 | 1014.9 |
| 20260503000543 | 22 | 232 | 6.4 | 12.9 | 0.00 | 0.00 | 0.00 | 33 | 1014.8 |
| 20260503000043 | 22 | 255 | 6.4 | 12.9 | 0.00 | 0.00 | 0.00 | 32 | 1014.9 |
| 20260502235543 | 22 | 218 | 4.8 | 11.3 | 0.00 | 0.00 | 0.00 | 33 | 1015.0 |
| 20260502235103 | 22 | 226 | 6.4 | 14.5 | 0.00 | 0.00 | 0.00 | 33 | 1015.2 |
| 20260502234542 | 22 | 234 | 6.4 | 14.5 | 0.00 | 0.00 | 0.00 | 33 | 1015.1 |
| 20260502234043 | 22 | 242 | 4.8 | 11.3 | 0.00 | 0.00 | 0.00 | 34 | 1015.1 |
| 20260502233542 | 22 | 228 | 4.8 | 11.3 | 0.00 | 0.00 | 0.00 | 34 | 1015.1 |
| 20260502233043 | 22 | 241 | 6.4 | 16.1 | 0.00 | 0.00 | 0.00 | 34 | 1015.2 |
| 20260502232543 | 22 | 237 | 6.4 | 17.7 | 0.00 | 0.00 | 0.00 | 34 | 1015.1 |
| 20260502232043 | 21 | 242 | 9.7 | 17.7 | 0.00 | 0.00 | 0.00 | 34 | 1015.4 |
| 20260502231543 | 21 | 254 | 8.0 | 17.7 | 0.00 | 0.00 | 0.00 | 35 | 1015.3 |
| 20260502231043 | 21 | 246 | 8.0 | 17.7 | 0.00 | 0.00 | 0.00 | 35 | 1015.4 |
| 20260502230543 | 21 | 240 | 6.4 | 14.5 | 0.00 | 0.00 | 0.00 | 35 | 1015.4 |
| 20260502230043 | 21 | 251 | 8.0 | 14.5 | 0.00 | 0.00 | 0.00 | 35 | 1015.4 |
| 20260502225542 | 21 | 249 | 6.4 | 16.1 | 0.00 | 0.00 | 0.00 | 35 | 1015.5 |
| 20260502225043 | 21 | 233 | 6.4 | 16.1 | 0.00 | 0.00 | 0.00 | 36 | 1015.5 |
| 20260502224543 | 21 | 252 | 6.4 | 17.7 | 0.00 | 0.00 | 0.00 | 36 | 1015.7 |
| 20260502224042 | 21 | 233 | 8.0 | 17.7 | 0.00 | 0.00 | 0.00 | 36 | 1015.8 |
| 20260502223543 | 21 | 244 | 8.0 | 14.5 | 0.00 | 0.00 | 0.00 | 36 | 1015.9 |
| 20260502223043 | 21 | 245 | 6.4 | 14.5 | 0.00 | 0.00 | 0.00 | 36 | 1016.0 |
| 20260502222603 | 21 | 248 | 6.4 | 16.1 | 0.00 | 0.00 | 0.00 | 36 | 1015.8 |
| 20260502222042 | 21 | 239 | 8.0 | 16.1 | 0.00 | 0.00 | 0.00 | 36 | 1016.1 |
| 20260502221543 | 21 | 239 | 6.4 | 12.9 | 0.00 | 0.00 | 0.00 | 36 | 1016.0 |
| 20260502221042 | 21 | 225 | 6.4 | 19.3 | 0.00 | 0.00 | 0.00 | 36 | 1015.9 |
| 20260502220543 | 21 | 267 | 6.4 | 19.3 | 0.00 | 0.00 | 0.00 | 35 | 1016.2 |
| 20260502215543 | 21 | 238 | 6.4 | 16.1 | 0.00 | 0.00 | 0.00 | 35 | 1016.0 |
| 20260502215043 | 21 | 255 | 6.4 | 16.1 | 0.00 | 0.00 | 0.00 | 35 | 1016.3 |
| 20260502214542 | 21 | 234 | 8.0 | 16.1 | 0.00 | 0.00 | 0.00 | 34 | 1016.4 |
| 20260502214043 | 21 | 236 | 9.7 | 16.1 | 0.00 | 0.00 | 0.00 | 34 | 1016.5 |
| 20260502213543 | 21 | 224 | 6.4 | 14.5 | 0.00 | 0.00 | 0.00 | 34 | 1016.5 |
| 20260502213043 | 21 | 235 | 8.0 | 14.5 | 0.00 | 0.00 | 0.00 | 34 | 1016.5 |
| 20260502212542 | 21 | 215 | 6.4 | 12.9 | 0.00 | 0.00 | 0.00 | 34 | 1016.6 |
| 20260502212043 | 21 | 236 | 6.4 | 12.9 | 0.00 | 0.00 | 0.00 | 33 | 1016.7 |
| 20260502211542 | 21 | 235 | 4.8 | 11.3 | 0.00 | 0.00 | 0.00 | 33 | 1016.5 |
| 20260502211043 | 21 | 241 | 8.0 | 11.3 | 0.00 | 0.00 | 0.00 | 33 | 1016.4 |
| 20260502210542 | 21 | 229 | 6.4 | 11.3 | 0.00 | 0.00 | 0.00 | 33 | 1016.6 |
| 20260502210043 | 21 | 224 | 6.4 | 12.9 | 0.00 | 0.00 | 0.00 | 33 | 1016.6 |
| 20260502205543 | 21 | 228 | 4.8 | 12.9 | 0.00 | 0.00 | 0.00 | 32 | 1016.5 |
| 20260502205043 | 21 | 212 | 4.8 | 9.7 | 0.00 | 0.00 | 0.00 | 32 | 1016.5 |
| 20260502204542 | 22 | 214 | 4.8 | 9.7 | 0.00 | 0.00 | 0.00 | 32 | 1016.7 |
| 20260502204043 | 22 | 240 | 4.8 | 9.7 | 0.00 | 0.00 | 0.00 | 31 | 1016.5 |
| 20260502203543 | 22 | 224 | 4.8 | 11.3 | 0.00 | 0.00 | 0.00 | 31 | 1016.6 |
| 20260502203043 | 23 | 229 | 4.8 | 11.3 | 0.00 | 0.00 | 0.00 | 30 | 1016.8 |
| 20260502202543 | 23 | 228 | 6.4 | 11.3 | 0.00 | 0.00 | 0.00 | 30 | 1016.6 |
| 20260502202043 | 24 | 227 | 6.4 | 11.3 | 0.00 | 0.00 | 0.00 | 29 | 1016.7 |
| 20260502201543 | 24 | 236 | 6.4 | 9.7 | 0.00 | 0.00 | 0.00 | 27 | 1016.7 |
| 20260502201043 | 24 | 232 | 4.8 | 11.3 | 0.00 | 0.00 | 0.00 | 27 | 1016.9 |
| 20260502200543 | 24 | 235 | 6.4 | 11.3 | 0.00 | 0.00 | 0.00 | 27 | 1017.0 |
| 20260502195542 | 25 | 141 | 3.2 | 11.3 | 0.00 | 0.00 | 0.00 | 26 | 1016.8 |
| 20260502195043 | 25 | 97 | 4.8 | 16.1 | 0.00 | 0.00 | 0.00 | 22 | 1017.1 |
| 20260502194603 | 24 | 240 | 8.0 | 16.1 | 0.00 | 0.00 | 0.00 | 26 | 1017.1 |
| 20260502194043 | 23 | 212 | 4.8 | 17.7 | 0.00 | 0.00 | 0.00 | 28 | 1017.3 |
| 20260502193543 | 23 | 92 | 3.2 | 17.7 | 0.00 | 0.00 | 0.00 | 27 | 1017.2 |
| 20260502193042 | 23 | 136 | 4.8 | 12.9 | 0.00 | 0.00 | 0.00 | 28 | 1017.4 |
| 20260502192542 | 23 | 147 | 3.2 | 11.3 | 0.00 | 0.00 | 0.00 | 29 | 1017.6 |
| 20260502192043 | 23 | 131 | 6.4 | 11.3 | 0.00 | 0.00 | 0.00 | 26 | 1017.5 |
| 20260502191542 | 23 | 228 | 3.2 | 9.7 | 0.00 | 0.00 | 0.00 | 29 | 1017.5 |
| 20260502191043 | 23 | 86 | 4.8 | 9.7 | 0.00 | 0.00 | 0.00 | 30 | 1017.4 |
| 20260502190542 | 23 | 49 | 3.2 | 8.0 | 0.00 | 0.00 | 0.00 | 31 | 1017.4 |
| 20260502190043 | 23 | 107 | 4.8 | 8.0 | 0.00 | 0.00 | 0.00 | 30 | 1017.7 |
| 20260502185542 | 23 | 78 | 4.8 | 8.0 | 0.00 | 0.00 | 0.00 | 27 | 1017.7 |
| 20260502185043 | 23 | 108 | 3.2 | 8.0 | 0.00 | 0.00 | 0.00 | 32 | 1017.5 |
| 20260502184543 | 22 | 161 | 1.6 | 9.7 | 0.00 | 0.00 | 0.00 | 34 | 1017.6 |
| 20260502184104 | 22 | 55 | 1.6 | 9.7 | 0.00 | 0.00 | 0.00 | 35 | 1017.6 |
| 20260502183543 | 22 | 127 | 3.2 | 9.7 | 0.00 | 0.00 | 0.00 | 35 | 1017.9 |
| 20260502183042 | 22 | 173 | 3.2 | 9.7 | 0.00 | 0.00 | 0.00 | 35 | 1017.8 |
| 20260502182542 | 22 | 163 | 3.2 | 9.7 | 0.00 | 0.00 | 0.00 | 36 | 1017.9 |
| 20260502182043 | 22 | 111 | 3.2 | 8.0 | 0.00 | 0.00 | 0.00 | 36 | 1018.0 |